createdAt,value
2023-04-25T00:00:15.436Z,24.13
2023-04-25T00:01:15.350Z,24.11
2023-04-25T00:02:15.411Z,24.13
2023-04-25T00:03:15.480Z,24.15
2023-04-25T00:04:15.596Z,24.11
2023-04-25T00:05:15.467Z,24.18
2023-04-25T00:06:15.293Z,24.14
2023-04-25T00:07:15.313Z,24.14
2023-04-25T00:08:15.384Z,24.15
2023-04-25T00:09:15.281Z,24.14
2023-04-25T00:10:15.312Z,24.22
2023-04-25T00:11:15.284Z,24.19
2023-04-25T00:12:15.252Z,24.21
2023-04-25T00:13:15.278Z,24.18
2023-04-25T00:14:15.245Z,24.21
2023-04-25T00:15:15.260Z,24.22
2023-04-25T00:16:15.314Z,24.16
2023-04-25T00:17:15.268Z,24.20
2023-04-25T00:18:15.240Z,24.18
2023-04-25T00:19:15.261Z,24.21
2023-04-25T00:20:15.297Z,24.20
2023-04-25T00:21:15.231Z,24.23
2023-04-25T00:22:15.204Z,24.26
2023-04-25T00:23:15.234Z,24.20
2023-04-25T00:24:15.188Z,24.23
2023-04-25T00:25:15.181Z,24.24
2023-04-25T00:26:15.262Z,24.26
2023-04-25T00:27:15.197Z,24.29
2023-04-25T00:28:15.207Z,24.28
2023-04-25T00:29:15.152Z,24.27
2023-04-25T00:30:15.161Z,24.30
2023-04-25T00:31:15.215Z,24.28
2023-04-25T00:32:15.133Z,24.28
2023-04-25T00:33:15.159Z,24.28
2023-04-25T00:34:15.140Z,24.27
2023-04-25T00:35:15.209Z,24.32
2023-04-25T00:36:15.214Z,24.26
2023-04-25T00:37:15.266Z,24.34
2023-04-25T00:38:15.298Z,24.36
2023-04-25T00:39:15.412Z,24.35
2023-04-25T00:40:15.367Z,24.33
2023-04-25T00:41:15.479Z,24.34
2023-04-25T00:42:15.438Z,24.36
2023-04-25T00:43:15.497Z,24.35
2023-04-25T00:44:15.517Z,24.31
2023-04-25T00:45:15.567Z,24.34
2023-04-25T00:46:15.622Z,24.34
2023-04-25T00:47:15.641Z,24.36
2023-04-25T00:48:15.648Z,24.35
2023-04-25T00:49:15.672Z,24.38
2023-04-25T00:50:15.723Z,24.33
2023-04-25T00:51:15.781Z,24.31
2023-04-25T00:52:15.813Z,24.35
2023-04-25T00:53:15.856Z,24.36
2023-04-25T00:54:15.919Z,24.35
2023-04-25T00:55:15.967Z,24.35
2023-04-25T00:56:15.957Z,24.40
2023-04-25T00:57:16.020Z,24.38
2023-04-25T00:58:16.052Z,24.39
2023-04-25T00:59:16.114Z,24.39
2023-04-25T01:00:16.136Z,24.40
2023-04-25T01:01:16.207Z,24.36
2023-04-25T01:02:16.301Z,24.37
2023-04-25T01:03:16.397Z,24.39
2023-04-25T01:04:16.398Z,24.35
2023-04-25T01:05:16.427Z,24.39
2023-04-25T01:06:16.354Z,24.39
2023-04-25T01:07:16.431Z,24.40
2023-04-25T01:08:16.504Z,24.45
2023-04-25T01:09:16.465Z,24.41
2023-04-25T01:10:16.500Z,24.41
2023-04-25T01:11:16.554Z,24.43
2023-04-25T01:12:16.590Z,24.41
2023-04-25T01:13:16.706Z,24.44
2023-04-25T01:14:16.755Z,24.39
2023-04-25T01:15:16.717Z,24.40
2023-04-25T01:16:16.800Z,24.44
2023-04-25T01:17:16.831Z,24.41
2023-04-25T01:18:16.839Z,24.41
2023-04-25T01:19:16.923Z,24.43
2023-04-25T01:20:16.960Z,24.41
2023-04-25T01:21:16.986Z,24.41
2023-04-25T01:22:17.030Z,24.43
2023-04-25T01:23:17.061Z,24.45
2023-04-25T01:24:17.175Z,24.40
2023-04-25T01:25:17.197Z,24.39
2023-04-25T01:26:17.237Z,24.48
2023-04-25T01:27:17.265Z,24.41
2023-04-25T01:28:17.296Z,24.44
2023-04-25T01:29:17.358Z,24.41
2023-04-25T01:30:17.444Z,24.41
2023-04-25T01:31:17.477Z,24.40
2023-04-25T01:32:17.590Z,24.38
2023-04-25T01:33:17.613Z,24.41
2023-04-25T01:34:17.666Z,24.37
2023-04-25T01:35:17.697Z,24.41
2023-04-25T01:36:17.809Z,24.44
2023-04-25T01:37:17.801Z,24.49
2023-04-25T01:38:17.808Z,24.47
2023-04-25T01:39:17.856Z,24.47
2023-04-25T01:40:17.909Z,24.43
2023-04-25T01:41:17.928Z,24.44
2023-04-25T01:42:18.046Z,24.47
2023-04-25T01:43:18.084Z,24.45
2023-04-25T01:44:18.066Z,24.44
2023-04-25T01:45:18.151Z,24.44
2023-04-25T01:46:18.252Z,24.45
2023-04-25T01:47:18.224Z,24.44
2023-04-25T01:48:18.273Z,24.52
2023-04-25T01:49:18.340Z,24.44
2023-04-25T01:50:18.468Z,24.45
2023-04-25T01:51:18.423Z,24.45
2023-04-25T01:52:18.484Z,24.47
2023-04-25T01:53:18.544Z,24.51
2023-04-25T01:54:18.595Z,24.48
2023-04-25T01:55:18.660Z,24.47
2023-04-25T01:56:18.712Z,24.49
2023-04-25T01:57:18.785Z,24.45
2023-04-25T01:58:18.828Z,24.53
2023-04-25T01:59:18.852Z,24.49
2023-04-25T02:00:18.931Z,24.53
2023-04-25T02:01:19.057Z,24.51
2023-04-25T02:02:19.094Z,24.50
2023-04-25T02:03:19.249Z,24.56
2023-04-25T02:04:19.466Z,24.54
2023-04-25T02:05:19.173Z,24.52
2023-04-25T02:06:19.249Z,24.49
2023-04-25T02:07:19.303Z,24.54
2023-04-25T02:08:19.423Z,24.53
2023-04-25T02:09:19.400Z,24.57
2023-04-25T02:10:19.443Z,24.53
2023-04-25T02:11:19.493Z,24.51
2023-04-25T02:12:19.641Z,24.55
2023-04-25T02:13:19.637Z,24.62
2023-04-25T02:14:19.670Z,24.54
2023-04-25T02:15:19.718Z,24.58
2023-04-25T02:16:19.836Z,24.58
2023-04-25T02:17:19.912Z,24.57
2023-04-25T02:18:19.932Z,24.57
2023-04-25T02:19:19.995Z,24.60
2023-04-25T02:20:20.001Z,24.58
2023-04-25T02:21:20.144Z,24.60
2023-04-25T02:22:20.063Z,24.60
2023-04-25T02:23:20.180Z,24.59
2023-04-25T02:24:20.210Z,24.60
2023-04-25T02:25:20.265Z,24.60
2023-04-25T02:26:20.319Z,24.55
2023-04-25T02:27:20.393Z,24.61
2023-04-25T02:28:20.422Z,24.61
2023-04-25T02:29:20.559Z,24.65
2023-04-25T02:30:20.546Z,24.59
2023-04-25T02:31:20.655Z,24.60
2023-04-25T02:32:20.688Z,24.60
2023-04-25T02:33:20.783Z,24.63
2023-04-25T02:34:20.768Z,24.60
2023-04-25T02:35:20.832Z,24.60
2023-04-25T02:36:20.885Z,24.61
2023-04-25T02:37:20.993Z,24.60
2023-04-25T02:38:21.033Z,24.66
2023-04-25T02:39:21.116Z,24.63
2023-04-25T02:40:21.151Z,24.63
2023-04-25T02:41:21.234Z,24.62
2023-04-25T02:42:21.252Z,24.65
2023-04-25T02:43:21.318Z,24.65
2023-04-25T02:44:21.383Z,24.65
2023-04-25T02:45:21.429Z,24.66
2023-04-25T02:46:32.238Z,24.63
2023-04-25T02:47:22.575Z,24.67
2023-04-25T02:48:21.482Z,24.68
2023-04-25T02:49:21.483Z,24.68
2023-04-25T02:50:21.463Z,24.65
2023-04-25T02:51:21.498Z,24.65
2023-04-25T02:52:21.526Z,24.67
2023-04-25T02:53:21.478Z,24.63
2023-04-25T02:54:21.443Z,24.67
2023-04-25T02:55:21.472Z,24.67
2023-04-25T02:56:21.453Z,24.67
2023-04-25T02:57:21.530Z,24.70
2023-04-25T02:58:21.572Z,24.70
2023-04-25T02:59:21.657Z,24.65
2023-04-25T03:00:21.697Z,24.62
2023-04-25T03:01:21.846Z,24.68
2023-04-25T03:02:21.890Z,24.70
2023-04-25T03:03:22.101Z,24.64
2023-04-25T03:04:22.004Z,24.71
2023-04-25T03:05:22.047Z,24.72
2023-04-25T03:06:22.077Z,24.66
2023-04-25T03:07:22.115Z,24.66
2023-04-25T03:08:22.177Z,24.71
2023-04-25T03:09:22.282Z,24.74
2023-04-25T03:10:22.341Z,24.74
2023-04-25T03:11:22.400Z,24.74
2023-04-25T03:12:22.419Z,24.68
2023-04-25T03:13:22.504Z,24.68
2023-04-25T03:14:22.633Z,24.70
2023-04-25T03:15:22.618Z,24.72
2023-04-25T03:16:22.729Z,24.72
2023-04-25T03:17:22.906Z,24.68
2023-04-25T03:18:22.812Z,24.74
2023-04-25T03:19:22.891Z,24.72
2023-04-25T03:20:22.932Z,24.70
2023-04-25T03:21:23.007Z,24.72
2023-04-25T03:22:23.080Z,24.75
2023-04-25T03:23:23.177Z,24.72
2023-04-25T03:24:23.154Z,24.75
2023-04-25T03:25:23.268Z,24.75
2023-04-25T03:26:23.311Z,24.69
2023-04-25T03:27:23.383Z,24.73
2023-04-25T03:28:23.417Z,24.76
2023-04-25T03:29:23.499Z,24.74
2023-04-25T03:30:23.535Z,24.73
2023-04-25T03:31:23.621Z,24.80
2023-04-25T03:32:23.733Z,24.71
2023-04-25T03:33:23.736Z,24.69
2023-04-25T03:34:23.847Z,24.76
2023-04-25T03:35:24.198Z,24.71
2023-04-25T03:36:24.196Z,24.75
2023-04-25T03:37:23.960Z,24.71
2023-04-25T03:38:24.075Z,24.75
2023-04-25T03:39:24.140Z,24.72
2023-04-25T03:40:24.142Z,24.72
2023-04-25T03:41:24.225Z,24.76
2023-04-25T03:42:24.308Z,24.76
2023-04-25T03:43:24.361Z,24.76
2023-04-25T03:44:24.430Z,24.78
2023-04-25T03:45:24.475Z,24.77
2023-04-25T03:46:24.723Z,24.76
2023-04-25T03:47:24.669Z,24.76
2023-04-25T03:48:24.651Z,24.75
2023-04-25T03:49:24.702Z,24.83
2023-04-25T03:50:24.764Z,24.76
2023-04-25T03:51:24.829Z,24.77
2023-04-25T03:52:24.888Z,24.75
2023-04-25T03:53:24.933Z,24.75
2023-04-25T03:54:24.949Z,24.78
2023-04-25T03:55:25.014Z,24.79
2023-04-25T03:56:25.037Z,24.77
2023-04-25T03:57:25.126Z,24.77
2023-04-25T03:58:25.160Z,24.76
2023-04-25T03:59:25.237Z,24.80
2023-04-25T04:00:25.278Z,24.80
2023-04-25T04:01:25.409Z,24.77
2023-04-25T04:02:25.552Z,24.83
2023-04-25T04:03:25.746Z,24.77
2023-04-25T04:04:25.684Z,24.80
2023-04-25T04:05:25.644Z,24.72
2023-04-25T04:06:25.489Z,24.72
2023-04-25T04:07:25.509Z,24.68
2023-04-25T04:08:25.475Z,24.61
2023-04-25T04:09:25.615Z,24.62
2023-04-25T04:10:25.478Z,24.61
2023-04-25T04:11:25.539Z,24.60
2023-04-25T04:12:25.494Z,24.55
2023-04-25T04:13:25.462Z,24.59
2023-04-25T04:14:25.469Z,24.51
2023-04-25T04:15:25.496Z,24.51
2023-04-25T04:16:25.565Z,24.51
2023-04-25T04:17:25.509Z,24.45
2023-04-25T04:18:25.566Z,24.47
2023-04-25T04:19:25.535Z,24.46
2023-04-25T04:20:25.488Z,24.45
2023-04-25T04:21:25.539Z,24.45
2023-04-25T04:22:25.575Z,24.44
2023-04-25T04:23:25.549Z,24.41
2023-04-25T04:24:25.537Z,24.49
2023-04-25T04:25:25.565Z,24.45
2023-04-25T04:26:25.515Z,24.49
2023-04-25T04:27:25.565Z,24.46
2023-04-25T04:28:25.691Z,24.45
2023-04-25T04:29:25.629Z,24.42
2023-04-25T04:30:25.659Z,24.38
2023-04-25T04:31:25.717Z,24.38
2023-04-25T04:32:25.827Z,24.35
2023-04-25T04:33:25.708Z,24.39
2023-04-25T04:34:25.731Z,24.47
2023-04-25T04:35:25.764Z,24.46
2023-04-25T04:36:25.732Z,24.47
2023-04-25T04:37:25.852Z,24.48
2023-04-25T04:38:25.735Z,24.48
2023-04-25T04:39:25.707Z,24.56
2023-04-25T04:40:25.762Z,24.52
2023-04-25T04:41:25.728Z,24.51
2023-04-25T04:42:25.760Z,24.54
2023-04-25T04:43:25.695Z,24.51
2023-04-25T04:44:25.733Z,24.54
2023-04-25T04:45:25.752Z,24.52
2023-04-25T04:46:25.908Z,24.51
2023-04-25T04:47:25.744Z,24.53
2023-04-25T04:48:25.753Z,24.52
2023-04-25T04:49:25.775Z,24.52
2023-04-25T04:50:25.877Z,24.55
2023-04-25T04:51:25.752Z,24.56
2023-04-25T04:52:25.786Z,24.60
2023-04-25T04:53:25.746Z,24.52
2023-04-25T04:54:25.763Z,24.52
2023-04-25T04:55:25.769Z,24.53
2023-04-25T04:56:25.933Z,24.57
2023-04-25T04:57:25.756Z,24.56
2023-04-25T04:58:25.742Z,24.58
2023-04-25T04:59:25.727Z,24.56
2023-04-25T05:00:27.815Z,24.57
2023-04-25T05:01:25.820Z,24.58
2023-04-25T05:02:25.753Z,24.60
2023-04-25T05:03:25.829Z,24.59
2023-04-25T05:04:25.899Z,24.61
2023-04-25T05:05:25.689Z,24.60
2023-04-25T05:06:25.732Z,24.59
2023-04-25T05:07:25.752Z,24.64
2023-04-25T05:08:25.747Z,24.63
2023-04-25T05:09:25.752Z,24.59
2023-04-25T05:10:25.712Z,24.63
2023-04-25T05:11:25.667Z,24.60
2023-04-25T05:12:25.663Z,24.61
2023-04-25T05:13:25.635Z,24.66
2023-04-25T05:14:25.631Z,24.64
2023-04-25T05:15:25.664Z,24.63
2023-04-25T05:16:25.674Z,24.62
2023-04-25T05:17:25.620Z,24.64
2023-04-25T05:18:25.609Z,24.63
2023-04-25T05:19:25.667Z,24.62
2023-04-25T05:20:25.606Z,24.67
2023-04-25T05:21:25.649Z,24.64
2023-04-25T05:22:25.606Z,24.67
2023-04-25T05:23:25.572Z,24.63
2023-04-25T05:24:25.589Z,24.64
2023-04-25T05:25:25.583Z,24.64
2023-04-25T05:26:25.556Z,24.67
2023-04-25T05:27:25.562Z,24.64
2023-04-25T05:28:25.610Z,24.67
2023-04-25T05:29:25.542Z,24.66
2023-04-25T05:30:25.781Z,24.62
2023-04-25T05:31:25.643Z,24.65
2023-04-25T05:32:25.651Z,24.63
2023-04-25T05:33:25.543Z,24.69
2023-04-25T05:34:25.511Z,24.65
2023-04-25T05:35:25.739Z,24.69
2023-04-25T05:36:25.495Z,24.81
2023-04-25T05:37:25.549Z,25.08
2023-04-25T05:38:25.513Z,25.04
2023-04-25T05:39:25.601Z,25.11
2023-04-25T05:40:25.448Z,25.30
2023-04-25T05:41:25.432Z,25.53
2023-04-25T05:42:25.760Z,25.72
2023-04-25T05:43:25.480Z,25.94
2023-04-25T05:44:25.409Z,25.98
2023-04-25T05:45:25.431Z,25.94
2023-04-25T05:46:25.628Z,26.07
2023-04-25T05:47:25.815Z,26.21
2023-04-25T05:48:25.374Z,26.30
2023-04-25T05:49:25.447Z,26.45
2023-04-25T05:50:25.411Z,26.60
2023-04-25T05:51:25.405Z,26.57
2023-04-25T05:52:25.386Z,26.93
2023-04-25T05:53:25.417Z,26.58
2023-04-25T05:54:25.384Z,26.39
2023-04-25T05:55:25.426Z,26.20
2023-04-25T05:56:25.392Z,26.06
2023-04-25T05:57:25.340Z,26.01
2023-04-25T05:58:25.354Z,25.99
2023-04-25T05:59:25.397Z,25.91
2023-04-25T06:00:25.348Z,25.73
2023-04-25T06:01:25.322Z,25.63
2023-04-25T06:02:25.525Z,25.61
2023-04-25T06:03:25.524Z,25.50
2023-04-25T06:04:25.534Z,25.43
2023-04-25T06:05:25.501Z,25.39
2023-04-25T06:06:25.277Z,25.34
2023-04-25T06:07:25.281Z,25.27
2023-04-25T06:08:25.272Z,25.27
2023-04-25T06:09:25.349Z,25.19
2023-04-25T06:10:25.287Z,25.16
2023-04-25T06:11:25.214Z,25.14
2023-04-25T06:12:25.258Z,25.07
2023-04-25T06:13:25.240Z,25.12
2023-04-25T06:14:26.681Z,25.09
2023-04-25T06:15:28.663Z,25.08
2023-04-25T06:16:25.502Z,25.10
2023-04-25T06:17:25.301Z,25.09
2023-04-25T06:18:25.335Z,25.11
2023-04-25T06:19:25.799Z,25.09
2023-04-25T06:20:25.293Z,25.07
2023-04-25T06:21:25.297Z,25.07
2023-04-25T06:22:25.283Z,25.02
2023-04-25T06:23:25.315Z,24.99
2023-04-25T06:24:25.747Z,24.99
2023-04-25T06:25:25.270Z,25.06
2023-04-25T06:26:25.255Z,25.09
2023-04-25T06:27:25.267Z,25.08
2023-04-25T06:28:25.255Z,25.00
2023-04-25T06:29:25.249Z,25.02
2023-04-25T06:30:25.256Z,24.98
2023-04-25T06:31:25.235Z,24.93
2023-04-25T06:32:25.754Z,24.93
2023-04-25T06:33:25.225Z,24.86
2023-04-25T06:34:25.290Z,24.79
2023-04-25T06:35:25.207Z,24.69
2023-04-25T06:36:25.193Z,24.62
2023-04-25T06:37:25.205Z,24.62
2023-04-25T06:38:25.217Z,24.60
2023-04-25T06:39:25.309Z,24.60
2023-04-25T06:40:25.171Z,24.61
2023-04-25T06:41:25.177Z,24.64
2023-04-25T06:42:25.148Z,24.64
2023-04-25T06:43:25.142Z,24.59
2023-04-25T06:44:25.281Z,24.60
2023-04-25T06:45:25.764Z,24.63
2023-04-25T06:46:25.208Z,24.61
2023-04-25T06:47:25.108Z,24.63
2023-04-25T06:48:25.082Z,24.61
2023-04-25T06:49:25.176Z,24.61
2023-04-25T06:50:25.353Z,24.61
2023-04-25T06:51:25.143Z,24.56
2023-04-25T06:52:25.188Z,24.57
2023-04-25T06:53:25.246Z,24.60
2023-04-25T06:54:25.365Z,24.56
2023-04-25T06:55:25.429Z,24.61
2023-04-25T06:56:25.436Z,24.60
2023-04-25T06:57:25.480Z,24.58
2023-04-25T06:58:25.543Z,24.57
2023-04-25T06:59:25.597Z,24.58
2023-04-25T07:00:25.773Z,24.61
2023-04-25T07:01:25.887Z,24.54
2023-04-25T07:02:25.862Z,24.62
2023-04-25T07:03:26.002Z,24.57
2023-04-25T07:04:26.286Z,24.57
2023-04-25T07:05:25.932Z,24.52
2023-04-25T07:06:26.016Z,24.57
2023-04-25T07:07:26.062Z,24.53
2023-04-25T07:08:26.282Z,24.52
2023-04-25T07:09:26.159Z,24.49
2023-04-25T07:10:26.208Z,24.45
2023-04-25T07:11:26.278Z,24.48
2023-04-25T07:12:26.312Z,24.41
2023-04-25T07:13:26.938Z,24.47
2023-04-25T07:14:26.440Z,24.42
2023-04-25T07:15:26.470Z,24.40
2023-04-25T07:16:26.520Z,24.38
2023-04-25T07:17:26.556Z,24.35
2023-04-25T07:18:26.575Z,24.36
2023-04-25T07:19:26.637Z,24.35
2023-04-25T07:20:26.785Z,24.29
2023-04-25T07:21:26.747Z,24.33
2023-04-25T07:22:26.747Z,24.31
2023-04-25T07:23:27.692Z,24.30
2023-04-25T07:24:26.861Z,24.27
2023-04-25T07:25:26.851Z,24.19
2023-04-25T07:26:26.873Z,24.24
2023-04-25T07:27:26.920Z,24.20
2023-04-25T07:28:26.954Z,24.20
2023-04-25T07:29:26.994Z,24.17
2023-04-25T07:30:27.055Z,24.22
2023-04-25T07:31:27.115Z,24.24
2023-04-25T07:32:27.195Z,24.18
2023-04-25T07:33:27.112Z,24.30
2023-04-25T07:34:27.338Z,24.52
2023-04-25T07:35:27.244Z,24.55
2023-04-25T07:36:27.250Z,24.82
2023-04-25T07:37:27.280Z,24.86
2023-04-25T07:38:27.276Z,25.38
2023-04-25T07:39:27.776Z,25.42
2023-04-25T07:40:27.373Z,25.52
2023-04-25T07:41:27.387Z,25.91
2023-04-25T07:42:27.434Z,26.04
2023-04-25T07:43:27.451Z,26.15
2023-04-25T07:44:27.452Z,26.23
2023-04-25T07:45:27.821Z,26.47
2023-04-25T07:46:27.959Z,26.39
2023-04-25T07:47:27.658Z,26.39
2023-04-25T07:48:27.584Z,26.58
2023-04-25T07:49:27.589Z,26.53
2023-04-25T07:50:27.656Z,26.50
2023-04-25T07:51:27.592Z,25.53
2023-04-25T07:52:27.653Z,25.15
2023-04-25T07:53:27.666Z,24.46
2023-04-25T07:54:27.769Z,24.56
2023-04-25T07:55:27.789Z,24.59
2023-04-25T07:56:28.521Z,24.68
2023-04-25T07:57:28.004Z,24.75
2023-04-25T07:58:28.053Z,24.70
2023-04-25T07:59:29.972Z,25.00
2023-04-25T08:00:28.184Z,24.84
2023-04-25T08:01:28.242Z,24.64
2023-04-25T08:02:28.411Z,24.67
2023-04-25T08:03:28.944Z,24.67
2023-04-25T08:04:28.464Z,24.37
2023-04-25T08:05:28.537Z,24.56
2023-04-25T08:06:28.921Z,24.57
2023-04-25T08:07:28.478Z,24.49
2023-04-25T08:08:28.556Z,24.36
2023-04-25T08:09:28.609Z,24.50
2023-04-25T08:10:28.607Z,24.40
2023-04-25T08:11:28.662Z,24.39
2023-04-25T08:12:28.680Z,24.22
2023-04-25T08:13:28.830Z,24.38
2023-04-25T08:14:28.853Z,24.40
2023-04-25T08:15:28.846Z,24.37
2023-04-25T08:16:28.928Z,24.29
2023-04-25T08:17:28.954Z,24.29
2023-04-25T08:18:29.827Z,24.14
2023-04-25T08:19:28.961Z,24.14
2023-04-25T08:20:29.017Z,23.98
2023-04-25T08:21:29.113Z,24.03
2023-04-25T08:22:29.111Z,24.05
2023-04-25T08:23:29.178Z,23.90
2023-04-25T08:24:29.221Z,24.17
2023-04-25T08:25:29.271Z,24.39
2023-04-25T08:26:29.267Z,24.49
2023-04-25T08:27:29.329Z,24.58
2023-04-25T08:28:29.379Z,24.40
2023-04-25T08:29:29.527Z,24.30
2023-04-25T08:30:29.818Z,24.26
2023-04-25T08:31:29.552Z,23.90
2023-04-25T08:32:30.755Z,24.02
2023-04-25T08:33:29.534Z,23.76
2023-04-25T08:34:29.590Z,23.69
2023-04-25T08:35:29.635Z,23.54
2023-04-25T08:36:38.712Z,23.48
2023-04-25T08:37:30.688Z,23.38
2023-04-25T08:38:29.826Z,23.49
2023-04-25T08:39:29.630Z,23.37
2023-04-25T08:40:29.760Z,23.27
2023-04-25T08:41:29.631Z,23.30
2023-04-25T08:42:29.646Z,23.51
2023-04-25T08:43:29.609Z,23.64
2023-04-25T08:44:29.674Z,23.79
2023-04-25T08:45:29.710Z,23.88
2023-04-25T08:46:30.626Z,23.70
2023-04-25T08:47:29.845Z,23.94
2023-04-25T08:48:29.832Z,24.13
2023-04-25T08:49:29.835Z,24.17
2023-04-25T08:50:30.351Z,24.28
2023-04-25T08:51:29.952Z,24.32
2023-04-25T08:52:29.963Z,24.28
2023-04-25T08:53:30.828Z,24.24
2023-04-25T08:54:35.855Z,23.79
2023-04-25T08:55:31.378Z,23.47
2023-04-25T08:56:31.118Z,23.35
2023-04-25T08:57:30.223Z,23.22
2023-04-25T08:58:30.018Z,23.37
2023-04-25T08:59:29.984Z,23.15
2023-04-25T09:00:31.272Z,22.81
2023-04-25T09:01:29.992Z,22.98
2023-04-25T09:02:30.105Z,22.87
2023-04-25T09:03:30.144Z,22.92
2023-04-25T09:04:30.043Z,23.27
2023-04-25T09:05:30.009Z,23.47
2023-04-25T09:06:29.992Z,23.48
2023-04-25T09:07:29.967Z,23.26
2023-04-25T09:08:30.129Z,23.18
2023-04-25T09:09:30.124Z,23.26
2023-04-25T09:11:30.257Z,23.17
2023-04-25T09:12:30.303Z,23.09
2023-04-25T09:13:30.397Z,22.97
2023-04-25T09:14:30.368Z,23.00
2023-04-25T09:15:30.411Z,23.05
2023-04-25T09:16:31.945Z,23.18
2023-04-25T09:17:30.596Z,23.14
2023-04-25T09:18:30.933Z,23.28
2023-04-25T09:20:31.618Z,23.29
2023-04-25T09:21:30.545Z,23.35
2023-04-25T09:22:30.516Z,23.30
2023-04-25T09:23:30.538Z,23.39
2023-04-25T09:24:30.530Z,23.38
2023-04-25T09:25:30.540Z,23.34
2023-04-25T09:26:30.547Z,23.41
2023-04-25T09:27:30.860Z,23.42
2023-04-25T09:28:31.076Z,23.46
2023-04-25T09:29:30.507Z,23.38
2023-04-25T09:30:30.573Z,23.56
2023-04-25T09:31:30.975Z,23.60
2023-04-25T09:32:30.604Z,23.59
2023-04-25T09:33:30.492Z,23.85
2023-04-25T09:34:30.844Z,23.81
2023-04-25T09:35:30.852Z,23.54
2023-04-25T09:36:30.591Z,23.03
2023-04-25T09:37:30.484Z,23.28
2023-04-25T09:38:30.467Z,23.26
2023-04-25T09:39:30.425Z,23.34
2023-04-25T09:40:30.848Z,23.36
2023-04-25T09:41:31.365Z,23.46
2023-04-25T09:42:31.534Z,23.48
2023-04-25T09:43:30.401Z,23.49
2023-04-25T09:44:30.404Z,23.48
2023-04-25T09:45:30.888Z,23.56
2023-04-25T09:46:30.451Z,23.55
2023-04-25T09:47:30.448Z,23.60
2023-04-25T09:48:30.386Z,23.62
2023-04-25T09:49:31.363Z,23.62
2023-04-25T09:50:30.843Z,23.63
2023-04-25T09:51:30.401Z,23.66
2023-04-25T09:52:30.346Z,23.63
2023-04-25T09:53:31.849Z,23.69
2023-04-25T09:54:30.328Z,23.70
2023-04-25T09:55:30.329Z,23.68
2023-04-25T09:56:30.348Z,23.72
2023-04-25T09:57:30.340Z,23.77
2023-04-25T09:58:32.068Z,23.78
2023-04-25T09:59:30.309Z,23.75
2023-04-25T10:00:30.299Z,23.81
2023-04-25T10:01:30.283Z,23.87
2023-04-25T10:02:30.454Z,23.81
2023-04-25T10:03:30.436Z,23.84
2023-04-25T10:04:31.571Z,23.80
2023-04-25T10:05:30.238Z,23.84
2023-04-25T10:06:30.244Z,23.80
2023-04-25T10:07:30.358Z,23.82
2023-04-25T10:08:30.213Z,23.83
2023-04-25T10:09:30.260Z,23.86
2023-04-25T10:10:31.567Z,23.82
2023-04-25T10:11:30.242Z,23.82
2023-04-25T10:12:30.217Z,23.76
2023-04-25T10:13:30.193Z,23.82
2023-04-25T10:14:30.254Z,23.79
2023-04-25T10:15:30.240Z,23.82
2023-04-25T10:16:30.243Z,23.78
2023-04-25T10:17:30.448Z,23.82
2023-04-25T10:18:30.199Z,23.83
2023-04-25T10:19:30.230Z,23.82
2023-04-25T10:20:30.349Z,23.75
2023-04-25T10:21:30.356Z,23.77
2023-04-25T10:22:30.853Z,23.70
2023-04-25T10:23:30.483Z,23.75
2023-04-25T10:24:30.471Z,23.74
2023-04-25T10:25:30.502Z,23.76
2023-04-25T10:26:31.383Z,23.79
2023-04-25T10:27:32.098Z,23.83
2023-04-25T10:28:30.667Z,23.93
2023-04-25T10:29:30.711Z,23.89
2023-04-25T10:30:30.879Z,23.91
2023-04-25T10:31:30.939Z,23.81
2023-04-25T10:32:31.246Z,23.97
2023-04-25T10:33:30.898Z,24.03
2023-04-25T10:34:31.563Z,23.87
2023-04-25T10:35:30.860Z,24.11
2023-04-25T10:36:30.864Z,23.99
2023-04-25T10:37:30.873Z,24.05
2023-04-25T10:38:30.912Z,23.98
2023-04-25T10:39:30.944Z,24.11
2023-04-25T10:40:31.390Z,24.14
2023-04-25T10:41:30.911Z,24.16
2023-04-25T10:42:31.022Z,24.16
2023-04-25T10:43:31.892Z,24.23
2023-04-25T10:44:31.419Z,24.15
2023-04-25T10:45:30.933Z,24.34
2023-04-25T10:46:31.016Z,24.14
2023-04-25T10:47:30.970Z,24.04
2023-04-25T10:48:30.935Z,24.11
2023-04-25T10:49:31.373Z,24.06
2023-04-25T10:50:30.914Z,24.04
2023-04-25T10:51:37.142Z,24.06
2023-04-25T10:52:31.872Z,23.98
2023-04-25T10:53:30.989Z,23.95
2023-04-25T10:54:30.877Z,23.92
2023-04-25T10:55:30.874Z,23.90
2023-04-25T10:56:31.361Z,23.91
2023-04-25T10:57:30.909Z,23.79
2023-04-25T10:58:30.859Z,23.82
2023-04-25T10:59:30.863Z,23.86
2023-04-25T11:00:34.146Z,23.70
2023-04-25T11:01:31.965Z,23.82
2023-04-25T11:02:30.958Z,23.87
2023-04-25T11:03:30.969Z,23.81
2023-04-25T11:04:31.142Z,23.82
2023-04-25T11:05:30.827Z,23.84
2023-04-25T11:06:30.810Z,23.92
2023-04-25T11:07:30.783Z,23.90
2023-04-25T11:08:30.821Z,24.01
2023-04-25T11:09:30.778Z,24.00
2023-04-25T11:10:30.768Z,24.00
2023-04-25T11:11:30.749Z,24.07
2023-04-25T11:12:30.894Z,24.03
2023-04-25T11:13:30.774Z,23.99
2023-04-25T11:14:30.777Z,24.10
2023-04-25T11:15:30.834Z,24.17
2023-04-25T11:16:30.762Z,24.11
2023-04-25T11:17:30.979Z,24.11
2023-04-25T11:18:31.452Z,23.91
2023-04-25T11:19:30.801Z,23.81
2023-04-25T11:20:30.846Z,23.68
2023-04-25T11:21:30.824Z,23.68
2023-04-25T11:22:30.911Z,23.53
2023-04-25T11:23:30.829Z,23.43
2023-04-25T11:24:30.786Z,23.29
2023-04-25T11:25:30.842Z,23.20
2023-04-25T11:26:30.902Z,23.14
2023-04-25T11:27:30.857Z,23.08
2023-04-25T11:28:30.853Z,22.99
2023-04-25T11:29:30.849Z,22.94
2023-04-25T11:30:30.939Z,22.97
2023-04-25T11:31:30.926Z,22.94
2023-04-25T11:32:30.953Z,22.94
2023-04-25T11:33:30.888Z,22.88
2023-04-25T11:34:30.937Z,22.86
2023-04-25T11:35:30.871Z,22.86
2023-04-25T11:36:30.908Z,22.74
2023-04-25T11:37:30.917Z,22.78
2023-04-25T11:38:31.006Z,22.80
2023-04-25T11:39:30.986Z,22.86
2023-04-25T11:40:30.976Z,22.82
2023-04-25T11:41:31.051Z,22.86
2023-04-25T11:42:31.053Z,22.80
2023-04-25T11:43:31.268Z,22.78
2023-04-25T11:44:31.206Z,22.72
2023-04-25T11:45:31.175Z,22.78
2023-04-25T11:46:31.317Z,22.77
2023-04-25T11:47:31.319Z,22.71
2023-04-25T11:48:31.310Z,22.69
2023-04-25T11:49:32.424Z,22.75
2023-04-25T11:50:31.324Z,22.61
2023-04-25T11:51:31.390Z,22.67
2023-04-25T11:52:31.368Z,22.67
2023-04-25T11:53:31.446Z,22.62
2023-04-25T11:54:31.452Z,22.62
2023-04-25T11:55:31.893Z,22.64
2023-04-25T11:56:31.463Z,22.67
2023-04-25T11:57:31.512Z,22.52
2023-04-25T11:58:31.521Z,22.25
2023-04-25T11:59:31.518Z,22.11
2023-04-25T12:00:31.601Z,22.15
2023-04-25T12:01:32.838Z,22.34
2023-04-25T12:02:31.632Z,22.32
2023-04-25T12:03:31.845Z,22.66
2023-04-25T12:04:31.745Z,22.82
2023-04-25T12:05:32.704Z,23.04
2023-04-25T12:06:31.583Z,22.93
2023-04-25T12:07:31.906Z,23.14
2023-04-25T12:08:31.514Z,23.22
2023-04-25T12:09:31.520Z,23.61
2023-04-25T12:10:31.478Z,23.64
2023-04-25T12:11:31.485Z,24.26
2023-04-25T12:12:31.934Z,24.38
2023-04-25T12:13:31.430Z,24.50
2023-04-25T12:14:31.477Z,24.61
2023-04-25T12:15:31.933Z,24.80
2023-04-25T12:16:31.630Z,24.79
2023-04-25T12:17:31.637Z,24.71
2023-04-25T12:18:31.492Z,24.80
2023-04-25T12:19:31.404Z,24.85
2023-04-25T12:20:31.951Z,24.84
2023-04-25T12:21:31.429Z,24.82
2023-04-25T12:22:31.475Z,24.71
2023-04-25T12:23:31.510Z,24.82
2023-04-25T12:24:31.463Z,24.75
2023-04-25T12:25:31.909Z,24.77
2023-04-25T12:26:31.473Z,24.79
2023-04-25T12:27:31.521Z,24.81
2023-04-25T12:28:31.500Z,24.82
2023-04-25T12:29:34.776Z,24.68
2023-04-25T12:30:32.511Z,24.77
2023-04-25T12:31:31.560Z,24.61
2023-04-25T12:32:31.525Z,24.66
2023-04-25T12:33:31.470Z,24.78
2023-04-25T12:34:31.510Z,24.68
2023-04-25T12:35:31.458Z,24.60
2023-04-25T12:36:31.477Z,24.68
2023-04-25T12:37:31.474Z,24.66
2023-04-25T12:38:31.546Z,24.56
2023-04-25T12:39:31.457Z,24.58
2023-04-25T12:40:31.461Z,24.50
2023-04-25T12:41:31.464Z,24.55
2023-04-25T12:42:31.468Z,24.46
2023-04-25T12:43:31.442Z,24.54
2023-04-25T12:44:31.437Z,24.38
2023-04-25T12:45:31.489Z,24.32
2023-04-25T12:46:31.413Z,24.27
2023-04-25T12:47:31.451Z,24.32
2023-04-25T12:48:31.440Z,24.17
2023-04-25T12:49:31.477Z,24.16
2023-04-25T12:50:31.455Z,24.20
2023-04-25T12:51:31.475Z,24.02
2023-04-25T12:52:31.608Z,24.09
2023-04-25T12:53:33.221Z,23.95
2023-04-25T12:54:32.454Z,23.83